createdAt,value
2018-07-23T00:03:29.215Z,39.37
2018-07-23T00:08:33.134Z,39.35
2018-07-23T00:13:38.001Z,39.35
2018-07-23T00:18:42.357Z,39.33
2018-07-23T00:23:46.171Z,39.35
2018-07-23T00:28:50.920Z,39.34
2018-07-23T00:33:55.275Z,39.38
2018-07-23T00:38:58.868Z,39.32
2018-07-23T00:44:03.221Z,39.31
2018-07-23T00:49:07.341Z,39.27
2018-07-23T00:54:11.372Z,39.31
2018-07-23T00:59:15.397Z,39.28
2018-07-23T01:04:19.911Z,39.27
2018-07-23T01:09:24.059Z,39.26
2018-07-23T01:14:28.457Z,39.29
2018-07-23T01:19:32.110Z,39.23
2018-07-23T01:24:35.712Z,39.22
2018-07-23T01:29:39.357Z,39.15
2018-07-23T01:34:43.571Z,39.15
2018-07-23T01:39:47.685Z,39.14
2018-07-23T01:44:51.770Z,39.11
2018-07-23T01:49:55.766Z,39.09
2018-07-23T01:54:59.440Z,39.12
2018-07-23T02:00:03.625Z,39.12
2018-07-23T02:05:08.389Z,39.11
2018-07-23T02:10:11.858Z,39.18
2018-07-23T02:15:16.441Z,39.08
2018-07-23T02:20:20.414Z,39.12
2018-07-23T02:25:24.778Z,39.06
2018-07-23T02:30:28.370Z,39.08
2018-07-23T02:35:32.203Z,39.06
2018-07-23T02:40:35.782Z,39.07
2018-07-23T02:45:39.293Z,39.06
2018-07-23T02:50:42.827Z,39.04
2018-07-23T02:55:46.381Z,39.02
2018-07-23T03:00:49.929Z,38.99
2018-07-23T03:05:53.628Z,39.01
2018-07-23T03:10:57.450Z,38.99
2018-07-23T03:16:00.963Z,38.92
2018-07-23T03:21:04.635Z,38.88
2018-07-23T03:26:08.137Z,38.87
2018-07-23T03:31:11.841Z,38.83
2018-07-23T03:36:15.292Z,38.84
2018-07-23T03:41:18.799Z,38.80
2018-07-23T03:46:22.451Z,38.81
2018-07-23T03:51:26.291Z,38.86
2018-07-23T03:56:29.841Z,38.83
2018-07-23T04:01:33.314Z,38.76
2018-07-23T04:06:36.827Z,38.86
2018-07-23T04:11:40.373Z,38.65
2018-07-23T04:16:43.946Z,38.52
2018-07-23T04:21:47.508Z,38.41
2018-07-23T04:26:51.022Z,38.42
2018-07-23T04:31:54.528Z,38.34
2018-07-23T04:36:58.214Z,38.32
2018-07-23T04:42:02.190Z,38.27
2018-07-23T04:47:05.946Z,38.29
2018-07-23T04:52:09.554Z,38.24
2018-07-23T04:57:13.133Z,38.20
2018-07-23T05:02:16.594Z,38.15
2018-07-23T05:07:20.046Z,38.20
2018-07-23T05:12:23.587Z,38.15
2018-07-23T05:17:27.151Z,38.15
2018-07-23T05:22:30.783Z,38.14
2018-07-23T05:27:34.290Z,38.19
2018-07-23T05:32:37.797Z,38.20
2018-07-23T05:37:41.483Z,38.21
2018-07-23T05:42:45.268Z,38.16
2018-07-23T05:47:48.779Z,38.21
2018-07-23T05:52:52.481Z,38.17
2018-07-23T05:57:56.238Z,38.18
2018-07-23T06:02:59.751Z,38.21
2018-07-23T06:08:03.563Z,38.13
2018-07-23T06:13:07.932Z,38.10
2018-07-23T06:18:11.444Z,38.17
2018-07-23T06:23:15.181Z,38.14
2018-07-23T06:28:18.893Z,38.15
2018-07-23T06:33:22.386Z,38.15
2018-07-23T06:38:25.871Z,38.15
2018-07-23T06:43:29.581Z,38.20
2018-07-23T06:48:33.177Z,38.25
2018-07-23T06:53:36.665Z,38.28
2018-07-23T06:58:40.210Z,38.31
2018-07-23T07:03:43.713Z,38.34
2018-07-23T07:08:47.406Z,38.34
2018-07-23T07:13:50.879Z,38.33
2018-07-23T07:18:54.563Z,38.34
2018-07-23T07:23:58.505Z,38.44
2018-07-23T07:29:02.029Z,38.48
2018-07-23T07:34:05.798Z,38.51
2018-07-23T07:39:11.498Z,38.57
2018-07-23T07:44:14.964Z,38.58
2018-07-23T07:49:18.544Z,38.59
2018-07-23T07:54:22.066Z,38.64
2018-07-23T07:59:25.543Z,38.62
2018-07-23T08:04:29.073Z,38.64
2018-07-23T08:09:32.626Z,38.65
2018-07-23T08:14:36.183Z,38.70
2018-07-23T08:19:39.875Z,38.68
2018-07-23T08:24:43.750Z,38.69
2018-07-23T08:29:47.165Z,38.71
2018-07-23T08:34:50.709Z,38.69
2018-07-23T08:39:54.233Z,38.75
2018-07-23T08:44:58.105Z,38.78
2018-07-23T08:50:01.780Z,38.76
2018-07-23T08:55:05.745Z,38.78
2018-07-23T09:00:13.084Z,38.72
2018-07-23T09:10:25.572Z,38.74
2018-07-23T09:15:29.053Z,38.77
2018-07-23T09:20:32.558Z,38.82
2018-07-23T09:25:41.405Z,38.80
2018-07-23T09:30:52.101Z,38.79
2018-07-23T09:35:55.539Z,38.78
2018-07-23T09:40:59.234Z,38.82
2018-07-23T09:46:02.776Z,38.82
2018-07-23T09:51:07.116Z,38.81
2018-07-23T09:56:10.629Z,38.81
2018-07-23T10:01:17.967Z,38.83
2018-07-23T10:06:21.453Z,38.88
2018-07-23T10:11:24.877Z,38.85
2018-07-23T10:16:28.513Z,38.87
2018-07-23T10:21:32.190Z,38.86
2018-07-23T10:26:35.805Z,38.87
2018-07-23T10:31:39.282Z,38.87
2018-07-23T10:36:42.949Z,38.88
2018-07-23T10:41:46.769Z,38.90
2018-07-23T10:46:50.381Z,38.91
2018-07-23T10:51:53.879Z,38.94
2018-07-23T10:56:57.518Z,38.93
2018-07-23T11:02:01.075Z,38.95
2018-07-23T11:07:04.664Z,38.90
2018-07-23T11:12:08.988Z,38.93
2018-07-23T11:17:12.557Z,38.93
2018-07-23T11:22:16.114Z,38.93
2018-07-23T11:27:19.849Z,38.94
2018-07-23T11:32:23.333Z,38.96
2018-07-23T11:37:27.129Z,38.95
2018-07-23T11:42:30.896Z,38.95
2018-07-23T11:47:34.603Z,38.98
2018-07-23T11:52:38.113Z,38.97
2018-07-23T11:57:41.598Z,38.94
2018-07-23T12:02:45.257Z,38.95
2018-07-23T12:07:49.124Z,38.99
2018-07-23T12:12:52.760Z,38.97
2018-07-23T12:17:56.252Z,38.99
2018-07-23T12:22:59.722Z,39.02
2018-07-23T12:28:03.265Z,39.03
2018-07-23T12:33:06.805Z,39.27
2018-07-23T12:38:10.228Z,39.94
2018-07-23T12:43:13.721Z,40.08
2018-07-23T12:48:17.251Z,40.13
2018-07-23T12:53:21.443Z,40.19
2018-07-23T12:58:25.145Z,40.21
2018-07-23T13:03:28.888Z,40.18
2018-07-23T13:08:32.495Z,40.19
2018-07-23T13:13:36.322Z,40.19
2018-07-23T13:18:40.250Z,40.16
2018-07-23T13:23:43.962Z,40.16
2018-07-23T13:28:47.697Z,40.18
2018-07-23T13:33:51.292Z,40.19
2018-07-23T13:38:55.133Z,40.24
2018-07-23T13:43:58.857Z,40.22
2018-07-23T13:49:02.467Z,40.23
2018-07-23T13:54:06.142Z,40.22
2018-07-23T13:59:09.804Z,40.23
2018-07-23T14:04:13.559Z,40.23
2018-07-23T14:09:17.576Z,40.25
2018-07-23T14:14:21.372Z,40.26
2018-07-23T14:19:24.783Z,40.31
2018-07-23T14:24:28.485Z,40.29
2018-07-23T14:29:31.985Z,40.26
2018-07-23T14:34:35.521Z,40.38
2018-07-23T14:39:39.554Z,40.28
2018-07-23T14:44:43.020Z,40.33
2018-07-23T14:49:46.709Z,40.28
2018-07-23T14:54:50.307Z,40.25
2018-07-23T14:59:54.867Z,40.29
2018-07-23T15:04:58.646Z,40.34
2018-07-23T15:10:02.302Z,40.39
2018-07-23T15:15:05.990Z,40.38
2018-07-23T15:20:09.617Z,40.40
2018-07-23T15:25:13.431Z,40.48
2018-07-23T15:30:16.935Z,40.47
2018-07-23T15:35:20.492Z,40.49
2018-07-23T15:40:24.201Z,40.45
2018-07-23T15:45:28.137Z,40.54
2018-07-23T15:50:31.753Z,40.59
2018-07-23T15:55:35.341Z,40.63
2018-07-23T16:00:38.814Z,40.59
2018-07-23T16:05:42.590Z,40.62
2018-07-23T16:10:46.440Z,40.62
2018-07-23T16:15:49.882Z,40.66
2018-07-23T16:20:53.517Z,40.71
2018-07-23T16:25:57.157Z,40.74
2018-07-23T16:31:00.895Z,40.78
2018-07-23T16:36:04.462Z,40.74
2018-07-23T16:41:08.120Z,40.88
2018-07-23T16:46:11.713Z,40.90
2018-07-23T16:51:15.234Z,40.96
2018-07-23T16:56:18.875Z,40.98
2018-07-23T17:01:22.741Z,40.98
2018-07-23T17:06:26.477Z,41.02
2018-07-23T17:11:30.031Z,40.88
2018-07-23T17:16:33.670Z,40.97
2018-07-23T17:21:37.897Z,40.87
2018-07-23T17:26:41.419Z,40.95
2018-07-23T17:31:45.336Z,41.00
2018-07-23T17:36:49.373Z,40.94
2018-07-23T17:41:52.909Z,40.95
2018-07-23T17:46:56.492Z,40.92
2018-07-23T17:52:00.865Z,40.90
2018-07-23T17:57:04.624Z,40.92
2018-07-23T18:02:08.813Z,40.99
2018-07-23T18:07:12.465Z,40.93
2018-07-23T18:12:17.137Z,41.01
2018-07-23T18:17:20.629Z,40.98
2018-07-23T18:22:24.227Z,40.98
2018-07-23T18:27:28.190Z,41.05
2018-07-23T18:32:31.717Z,40.96
2018-07-23T18:37:35.440Z,41.10
2018-07-23T18:42:39.017Z,41.00
2018-07-23T18:47:43.720Z,41.07
2018-07-23T18:52:47.246Z,41.10
2018-07-23T18:57:50.781Z,41.05
2018-07-23T19:02:54.758Z,41.05
2018-07-23T19:07:58.270Z,41.08
2018-07-23T19:13:02.070Z,41.11
2018-07-23T19:18:06.091Z,41.15
2018-07-23T19:23:09.935Z,41.15
2018-07-23T19:28:13.458Z,41.15
2018-07-23T19:33:17.232Z,41.16
2018-07-23T19:38:20.865Z,41.19
2018-07-23T19:43:24.576Z,41.13
2018-07-23T19:48:28.278Z,41.23
2018-07-23T19:53:32.154Z,41.24
2018-07-23T19:58:35.826Z,41.23
2018-07-23T20:03:39.644Z,41.28
2018-07-23T20:08:43.090Z,41.28
2018-07-23T20:13:46.553Z,41.27
2018-07-23T20:18:50.071Z,41.26
2018-07-23T20:23:53.543Z,41.28
2018-07-23T20:28:57.478Z,41.29
2018-07-23T20:34:01.005Z,41.09
2018-07-23T20:39:06.364Z,41.23
2018-07-23T20:44:09.966Z,41.21
2018-07-23T20:49:14.727Z,41.23
2018-07-23T20:54:18.977Z,41.25
2018-07-23T20:59:22.927Z,41.23
2018-07-23T21:04:26.732Z,41.19
2018-07-23T21:09:31.172Z,41.19
2018-07-23T21:14:35.291Z,41.20
2018-07-23T21:19:39.438Z,41.16
2018-07-23T21:24:43.425Z,41.19
2018-07-23T21:29:47.008Z,41.17
2018-07-23T21:34:50.565Z,41.17
2018-07-23T21:39:54.110Z,41.11
2018-07-23T21:44:58.542Z,41.11
2018-07-23T21:50:02.066Z,41.01
2018-07-23T21:55:07.181Z,41.01
2018-07-23T22:00:14.809Z,41.10
2018-07-23T22:05:18.597Z,41.02
2018-07-23T22:10:22.212Z,41.00
2018-07-23T22:15:25.846Z,40.98
2018-07-23T22:20:29.418Z,40.98
2018-07-23T22:25:33.081Z,40.97
2018-07-23T22:30:36.673Z,40.93
2018-07-23T22:35:40.638Z,40.89
2018-07-23T22:40:44.481Z,40.87
2018-07-23T22:45:48.274Z,40.85
2018-07-23T22:50:51.889Z,40.79
2018-07-23T22:55:55.571Z,40.80
2018-07-23T23:00:59.305Z,40.77
2018-07-23T23:06:03.119Z,40.78
2018-07-23T23:11:06.570Z,40.79
2018-07-23T23:16:10.474Z,40.77
2018-07-23T23:21:13.988Z,40.73
2018-07-23T23:26:17.857Z,40.64
2018-07-23T23:31:21.448Z,40.69
2018-07-23T23:36:25.103Z,40.72
2018-07-23T23:41:28.665Z,40.68
2018-07-23T23:46:32.384Z,40.69
2018-07-23T23:51:35.937Z,40.65
2018-07-23T23:56:39.434Z,40.62
